sensor_id;sensor_type;location;lat;lon;timestamp;pressure;altitude;pressure_sealevel;temperature;humidity
68859;BME280;55864;49.238;8.092;2023-04-01T00:01:29;97958.00;;;10.30;71.88
68859;BME280;55864;49.238;8.092;2023-04-01T00:03:29;97962.78;;;10.26;71.59
68859;BME280;55864;49.238;8.092;2023-04-01T00:05:31;97956.91;;;10.24;71.78
68859;BME280;55864;49.238;8.092;2023-04-01T00:07:32;97955.63;;;10.20;72.12
68859;BME280;55864;49.238;8.092;2023-04-01T00:09:32;97950.03;;;10.23;71.74
68859;BME280;55864;49.238;8.092;2023-04-01T00:11:33;97954.00;;;10.19;70.95
68859;BME280;55864;49.238;8.092;2023-04-01T00:13:33;97956.44;;;10.21;72.32
68859;BME280;55864;49.238;8.092;2023-04-01T00:15:34;97960.88;;;10.20;71.65
68859;BME280;55864;49.238;8.092;2023-04-01T00:17:35;97954.84;;;10.20;72.04
68859;BME280;55864;49.238;8.092;2023-04-01T00:19:35;97949.41;;;10.21;71.69
68859;BME280;55864;49.238;8.092;2023-04-01T00:21:37;97963.97;;;10.24;72.04
68859;BME280;55864;49.238;8.092;2023-04-01T00:23:38;97958.06;;;10.22;71.98
68859;BME280;55864;49.238;8.092;2023-04-01T00:25:38;97955.63;;;10.20;71.26
68859;BME280;55864;49.238;8.092;2023-04-01T00:27:39;97950.56;;;10.19;72.12
68859;BME280;55864;49.238;8.092;2023-04-01T00:29:42;97952.03;;;10.21;72.30
68859;BME280;55864;49.238;8.092;2023-04-01T00:31:43;97946.78;;;10.21;71.34
68859;BME280;55864;49.238;8.092;2023-04-01T00:33:43;97945.78;;;10.22;72.27
68859;BME280;55864;49.238;8.092;2023-04-01T00:35:44;97936.91;;;10.23;71.95
68859;BME280;55864;49.238;8.092;2023-04-01T00:37:46;97932.19;;;10.19;71.81
68859;BME280;55864;49.238;8.092;2023-04-01T00:39:47;97938.25;;;10.19;71.83
68859;BME280;55864;49.238;8.092;2023-04-01T00:41:47;97937.63;;;10.17;71.22
68859;BME280;55864;49.238;8.092;2023-04-01T00:43:50;97933.34;;;10.16;71.28
68859;BME280;55864;49.238;8.092;2023-04-01T00:45:51;97941.06;;;10.18;71.13
68859;BME280;55864;49.238;8.092;2023-04-01T00:47:51;97945.50;;;10.17;71.15
68859;BME280;55864;49.238;8.092;2023-04-01T00:49:53;97940.88;;;10.19;71.16
68859;BME280;55864;49.238;8.092;2023-04-01T00:51:55;97943.50;;;10.19;70.76
68859;BME280;55864;49.238;8.092;2023-04-01T00:53:59;97929.75;;;10.17;71.01
68859;BME280;55864;49.238;8.092;2023-04-01T00:56:04;97936.47;;;10.20;70.59
68859;BME280;55864;49.238;8.092;2023-04-01T00:58:09;97936.16;;;10.15;71.04
68859;BME280;55864;49.238;8.092;2023-04-01T01:00:12;97932.72;;;10.14;70.89
68859;BME280;55864;49.238;8.092;2023-04-01T01:02:15;97936.16;;;10.15;70.36
68859;BME280;55864;49.238;8.092;2023-04-01T01:04:21;97930.56;;;10.18;70.89
68859;BME280;55864;49.238;8.092;2023-04-01T01:06:30;97935.97;;;10.16;70.76
68859;BME280;55864;49.238;8.092;2023-04-01T01:08:59;97922.06;;;10.16;71.23
68859;BME280;55864;49.238;8.092;2023-04-01T01:11:05;97931.72;;;10.15;70.80
68859;BME280;55864;49.238;8.092;2023-04-01T01:13:10;97925.78;;;10.21;70.80
68859;BME280;55864;49.238;8.092;2023-04-01T01:15:17;97927.78;;;10.19;70.62
68859;BME280;55864;49.238;8.092;2023-04-01T01:17:28;97922.16;;;10.22;70.74
68859;BME280;55864;49.238;8.092;2023-04-01T01:19:45;97931.03;;;10.21;70.43
68859;BME280;55864;49.238;8.092;2023-04-01T01:22:16;97917.28;;;10.19;70.18
68859;BME280;55864;49.238;8.092;2023-04-01T01:24:37;97921.19;;;10.23;70.39
68859;BME280;55864;49.238;8.092;2023-04-01T01:27:02;97910.03;;;10.21;70.23
68859;BME280;55864;49.238;8.092;2023-04-01T01:29:11;97919.72;;;10.21;70.45
68859;BME280;55864;49.238;8.092;2023-04-01T01:31:20;97912.66;;;10.21;69.48
68859;BME280;55864;49.238;8.092;2023-04-01T01:33:42;97904.78;;;10.21;69.82
68859;BME280;55864;49.238;8.092;2023-04-01T01:35:49;97895.91;;;10.22;69.76
68859;BME280;55864;49.238;8.092;2023-04-01T01:38:09;97902.81;;;10.23;69.93
68859;BME280;55864;49.238;8.092;2023-04-01T01:40:13;97904.88;;;10.28;70.09
68859;BME280;55864;49.238;8.092;2023-04-01T01:42:17;97890.84;;;10.21;69.62
68859;BME280;55864;49.238;8.092;2023-04-01T01:44:21;97893.47;;;10.21;69.50
68859;BME280;55864;49.238;8.092;2023-04-01T01:46:24;97901.16;;;10.22;69.78
68859;BME280;55864;49.238;8.092;2023-04-01T01:48:27;97900.69;;;10.19;70.20
68859;BME280;55864;49.238;8.092;2023-04-01T01:50:29;97904.34;;;10.18;71.22
68859;BME280;55864;49.238;8.092;2023-04-01T01:52:32;97908.75;;;10.17;70.75
68859;BME280;55864;49.238;8.092;2023-04-01T01:54:32;97892.56;;;10.14;71.36
68859;BME280;55864;49.238;8.092;2023-04-01T01:56:34;97904.66;;;10.15;72.38
68859;BME280;55864;49.238;8.092;2023-04-01T01:58:37;97902.22;;;10.13;72.80
68859;BME280;55864;49.238;8.092;2023-04-01T02:00:40;97909.09;;;10.14;73.33
68859;BME280;55864;49.238;8.092;2023-04-01T02:02:42;97906.00;;;10.11;73.86
68859;BME280;55864;49.238;8.092;2023-04-01T02:04:45;97896.97;;;10.13;73.92
68859;BME280;55864;49.238;8.092;2023-04-01T02:06:51;97897.47;;;10.09;74.86
68859;BME280;55864;49.238;8.092;2023-04-01T02:08:56;97895.03;;;10.07;74.08
68859;BME280;55864;49.238;8.092;2023-04-01T02:11:00;97901.47;;;10.05;75.11
68859;BME280;55864;49.238;8.092;2023-04-01T02:13:08;97893.75;;;10.03;74.93
68859;BME280;55864;49.238;8.092;2023-04-01T02:15:12;97895.91;;;10.00;74.83
68859;BME280;55864;49.238;8.092;2023-04-01T02:19:17;97906.59;;;9.98;75.04
68859;BME280;55864;49.238;8.092;2023-04-01T02:21:20;97907.41;;;9.99;75.54
68859;BME280;55864;49.238;8.092;2023-04-01T02:23:21;97894.47;;;9.97;75.51
68859;BME280;55864;49.238;8.092;2023-04-01T02:25:26;97913.53;;;9.91;75.47
68859;BME280;55864;49.238;8.092;2023-04-01T02:27:28;97912.72;;;9.91;75.88
68859;BME280;55864;49.238;8.092;2023-04-01T02:29:29;97913.69;;;9.90;77.41
68859;BME280;55864;49.238;8.092;2023-04-01T02:31:30;97908.44;;;9.90;77.42
68859;BME280;55864;49.238;8.092;2023-04-01T02:33:32;97914.28;;;9.77;76.36
68859;BME280;55864;49.238;8.092;2023-04-01T02:35:34;97905.09;;;9.81;76.57
68859;BME280;55864;49.238;8.092;2023-04-01T02:37:37;97899.09;;;9.73;77.83
68859;BME280;55864;49.238;8.092;2023-04-01T02:39:38;97902.97;;;9.77;77.01
68859;BME280;55864;49.238;8.092;2023-04-01T02:41:41;97896.28;;;9.74;77.60
68859;BME280;55864;49.238;8.092;2023-04-01T02:43:43;97906.38;;;9.63;77.04
68859;BME280;55864;49.238;8.092;2023-04-01T02:45:43;97905.97;;;9.74;77.54
68859;BME280;55864;49.238;8.092;2023-04-01T02:47:44;97908.06;;;9.78;77.80
68859;BME280;55864;49.238;8.092;2023-04-01T02:49:44;97903.63;;;9.79;78.56
68859;BME280;55864;49.238;8.092;2023-04-01T02:51:45;97899.03;;;9.81;78.34
68859;BME280;55864;49.238;8.092;2023-04-01T02:53:45;97901.47;;;9.82;78.30
68859;BME280;55864;49.238;8.092;2023-04-01T02:55:46;97910.78;;;9.85;78.10
68859;BME280;55864;49.238;8.092;2023-04-01T02:57:48;97903.94;;;9.84;78.05
68859;BME280;55864;49.238;8.092;2023-04-01T02:59:48;97898.75;;;9.76;77.84
68859;BME280;55864;49.238;8.092;2023-04-01T03:01:49;97901.88;;;9.71;78.29
68859;BME280;55864;49.238;8.092;2023-04-01T03:03:49;97907.94;;;9.72;77.88
68859;BME280;55864;49.238;8.092;2023-04-01T03:05:50;97907.75;;;9.73;77.49
68859;BME280;55864;49.238;8.092;2023-04-01T03:07:51;97903.84;;;9.69;77.85
68859;BME280;55864;49.238;8.092;2023-04-01T03:09:51;97909.75;;;9.71;78.39
68859;BME280;55864;49.238;8.092;2023-04-01T03:11:52;97911.50;;;9.79;78.57
68859;BME280;55864;49.238;8.092;2023-04-01T03:13:54;97920.53;;;9.76;78.43
68859;BME280;55864;49.238;8.092;2023-04-01T03:15:55;97907.94;;;9.72;78.15
68859;BME280;55864;49.238;8.092;2023-04-01T03:17:55;97913.81;;;9.74;78.78
68859;BME280;55864;49.238;8.092;2023-04-01T03:19:56;97919.72;;;9.76;79.52
68859;BME280;55864;49.238;8.092;2023-04-01T03:21:56;97911.56;;;9.71;78.83
68859;BME280;55864;49.238;8.092;2023-04-01T03:23:57;97917.47;;;9.73;78.35
68859;BME280;55864;49.238;8.092;2023-04-01T03:25:58;97911.03;;;9.75;78.78
68859;BME280;55864;49.238;8.092;2023-04-01T03:27:58;97913.31;;;9.78;78.48
68859;BME280;55864;49.238;8.092;2023-04-01T03:30:00;97916.72;;;9.79;77.85
68859;BME280;55864;49.238;8.092;2023-04-01T03:32:01;97907.56;;;9.75;77.70
68859;BME280;55864;49.238;8.092;2023-04-01T03:34:02;97914.00;;;9.72;77.69
68859;BME280;55864;49.238;8.092;2023-04-01T03:36:03;97905.13;;;9.73;77.55
68859;BME280;55864;49.238;8.092;2023-04-01T03:38:04;97908.75;;;9.72;76.13
68859;BME280;55864;49.238;8.092;2023-04-01T03:40:06;97904.50;;;9.71;76.74
68859;BME280;55864;49.238;8.092;2023-04-01T03:42:06;97904.50;;;9.71;77.50
68859;BME280;55864;49.238;8.092;2023-04-01T03:44:07;97901.09;;;9.71;77.46
68859;BME280;55864;49.238;8.092;2023-04-01T03:48:25;97904.69;;;9.70;77.44
68859;BME280;55864;49.238;8.092;2023-04-01T03:50:26;97903.06;;;9.69;76.91
68859;BME280;55864;49.238;8.092;2023-04-01T03:52:26;97903.69;;;9.71;76.16
68859;BME280;55864;49.238;8.092;2023-04-01T03:54:27;97906.47;;;9.69;76.60
68859;BME280;55864;49.238;8.092;2023-04-01T03:56:39;97896.72;;;9.63;76.51
68859;BME280;55864;49.238;8.092;2023-04-01T03:58:40;97902.59;;;9.65;76.31
68859;BME280;55864;49.238;8.092;2023-04-01T04:00:42;97912.44;;;9.63;76.21
68859;BME280;55864;49.238;8.092;2023-04-01T04:02:45;97903.75;;;9.63;75.69
68859;BME280;55864;49.238;8.092;2023-04-01T04:04:49;97911.63;;;9.63;75.97
68859;BME280;55864;49.238;8.092;2023-04-01T04:06:49;97894.88;;;9.64;76.88
68859;BME280;55864;49.238;8.092;2023-04-01T04:08:50;97904.56;;;9.63;76.20
68859;BME280;55864;49.238;8.092;2023-04-01T04:10:54;97891.28;;;9.65;76.31
68859;BME280;55864;49.238;8.092;2023-04-01T04:12:55;97899.47;;;9.62;75.55
68859;BME280;55864;49.238;8.092;2023-04-01T04:14:58;97890.50;;;9.56;76.49
68859;BME280;55864;49.238;8.092;2023-04-01T04:16:58;97896.84;;;9.62;76.16
68859;BME280;55864;49.238;8.092;2023-04-01T04:19:01;97893.72;;;9.66;76.13
68859;BME280;55864;49.238;8.092;2023-04-01T04:21:02;97892.13;;;9.65;75.80
68859;BME280;55864;49.238;8.092;2023-04-01T04:23:03;97887.66;;;9.66;75.81
68859;BME280;55864;49.238;8.092;2023-04-01T04:25:04;97879.50;;;9.61;76.32
68859;BME280;55864;49.238;8.092;2023-04-01T04:27:05;97889.88;;;9.54;77.07
68859;BME280;55864;49.238;8.092;2023-04-01T04:29:06;97883.22;;;9.43;76.81
68859;BME280;55864;49.238;8.092;2023-04-01T04:31:07;97883.00;;;9.53;76.65
68859;BME280;55864;49.238;8.092;2023-04-01T04:33:08;97886.50;;;9.45;77.11
68859;BME280;55864;49.238;8.092;2023-04-01T04:35:10;97881.44;;;9.44;77.53
68859;BME280;55864;49.238;8.092;2023-04-01T04:37:11;97878.91;;;9.50;77.67
68859;BME280;55864;49.238;8.092;2023-04-01T04:39:12;97885.16;;;9.49;77.32
68859;BME280;55864;49.238;8.092;2023-04-01T04:41:16;97874.13;;;9.54;77.99
68859;BME280;55864;49.238;8.092;2023-04-01T04:43:21;97877.75;;;9.53;78.34
68859;BME280;55864;49.238;8.092;2023-04-01T04:45:21;97869.63;;;9.48;77.94
68859;BME280;55864;49.238;8.092;2023-04-01T04:47:28;97882.19;;;9.52;78.53
68859;BME280;55864;49.238;8.092;2023-04-01T04:49:28;97883.00;;;9.53;78.69
68859;BME280;55864;49.238;8.092;2023-04-01T04:51:31;97877.75;;;9.53;78.26
68859;BME280;55864;49.238;8.092;2023-04-01T04:53:31;97877.94;;;9.52;78.27
68859;BME280;55864;49.238;8.092;2023-04-01T04:55:32;97877.13;;;9.51;77.32
68859;BME280;55864;49.238;8.092;2023-04-01T04:57:51;97881.34;;;9.52;77.98
68859;BME280;55864;49.238;8.092;2023-04-01T04:59:52;97883.19;;;9.52;78.28
68859;BME280;55864;49.238;8.092;2023-04-01T05:02:01;97889.75;;;9.47;78.85
68859;BME280;55864;49.238;8.092;2023-04-01T05:04:02;97886.13;;;9.48;79.07
68859;BME280;55864;49.238;8.092;2023-04-01T05:06:04;97881.06;;;9.47;78.95
68859;BME280;55864;49.238;8.092;2023-04-01T05:08:06;97883.69;;;9.47;79.72
68859;BME280;55864;49.238;8.092;2023-04-01T05:10:08;97880.91;;;9.48;80.24
68859;BME280;55864;49.238;8.092;2023-04-01T05:12:08;97881.06;;;9.47;80.43
68859;BME280;55864;49.238;8.092;2023-04-01T05:14:41;97879.97;;;9.41;80.30
68859;BME280;55864;49.238;8.092;2023-04-01T05:16:44;97880.09;;;9.48;79.75
68859;BME280;55864;49.238;8.092;2023-04-01T05:18:45;97883.97;;;9.52;79.84
68859;BME280;55864;49.238;8.092;2023-04-01T05:20:46;97886.78;;;9.50;79.79
68859;BME280;55864;49.238;8.092;2023-04-01T05:22:47;97882.53;;;9.49;79.47
68859;BME280;55864;49.238;8.092;2023-04-01T05:24:49;97882.72;;;9.48;79.60
68859;BME280;55864;49.238;8.092;2023-04-01T05:26:50;97882.09;;;9.46;79.67
68859;BME280;55864;49.238;8.092;2023-04-01T05:28:50;97889.28;;;9.44;80.21
68859;BME280;55864;49.238;8.092;2023-04-01T05:30:51;97885.34;;;9.48;80.33
68859;BME280;55864;49.238;8.092;2023-04-01T05:33:00;97885.69;;;9.45;80.87
68859;BME280;55864;49.238;8.092;2023-04-01T05:35:01;97883.88;;;9.45;80.68
68859;BME280;55864;49.238;8.092;2023-04-01T05:37:02;97880.44;;;9.45;80.30
68859;BME280;55864;49.238;8.092;2023-04-01T05:39:03;97881.47;;;9.36;81.10
68859;BME280;55864;49.238;8.092;2023-04-01T05:41:05;97888.47;;;9.43;80.27
68859;BME280;55864;49.238;8.092;2023-04-01T05:43:09;97884.38;;;9.41;80.58
68859;BME280;55864;49.238;8.092;2023-04-01T05:45:10;97881.31;;;9.37;80.49
68859;BME280;55864;49.238;8.092;2023-04-01T05:47:40;97885.56;;;9.38;81.68
68859;BME280;55864;49.238;8.092;2023-04-01T05:49:40;97879.22;;;9.33;81.64
68859;BME280;55864;49.238;8.092;2023-04-01T05:51:41;97881.00;;;9.32;81.42
68859;BME280;55864;49.238;8.092;2023-04-01T05:53:43;97873.97;;;9.33;81.31
68859;BME280;55864;49.238;8.092;2023-04-01T05:55:43;97868.78;;;9.25;80.94
68859;BME280;55864;49.238;8.092;2023-04-01T05:57:46;97885.66;;;9.22;82.30
68859;BME280;55864;49.238;8.092;2023-04-01T05:59:47;97887.75;;;9.27;82.42
68859;BME280;55864;49.238;8.092;2023-04-01T06:01:47;97881.31;;;9.37;84.99
68859;BME280;55864;49.238;8.092;2023-04-01T06:03:48;97881.03;;;9.55;82.84
68859;BME280;55864;49.238;8.092;2023-04-01T06:05:49;97876.53;;;9.41;81.92
68859;BME280;55864;49.238;8.092;2023-04-01T06:07:51;97871.00;;;9.36;82.50
68859;BME280;55864;49.238;8.092;2023-04-01T06:09:54;97872.50;;;9.30;81.85
68859;BME280;55864;49.238;8.092;2023-04-01T06:12:06;97874.03;;;9.25;82.45
68859;BME280;55864;49.238;8.092;2023-04-01T06:14:28;97873.19;;;9.24;82.76
68859;BME280;55864;49.238;8.092;2023-04-01T06:16:43;97869.81;;;9.16;82.13
68859;BME280;55864;49.238;8.092;2023-04-01T06:18:56;97886.31;;;9.16;82.16
68859;BME280;55864;49.238;8.092;2023-04-01T06:21:04;97868.13;;;9.23;82.45
68859;BME280;55864;49.238;8.092;2023-04-01T06:25:50;97873.75;;;9.12;82.38
68859;BME280;55864;49.238;8.092;2023-04-01T06:27:59;97877.19;;;9.12;82.67
68859;BME280;55864;49.238;8.092;2023-04-01T06:30:20;97873.06;;;9.18;82.63
68859;BME280;55864;49.238;8.092;2023-04-01T06:32:38;97874.69;;;9.19;82.96
68859;BME280;55864;49.238;8.092;2023-04-01T06:34:54;97866.19;;;9.17;82.81
68859;BME280;55864;49.238;8.092;2023-04-01T06:37:27;97871.72;;;9.22;82.50
68859;BME280;55864;49.238;8.092;2023-04-01T06:42:15;97874.91;;;9.09;82.61
68859;BME280;55864;49.238;8.092;2023-04-01T06:44:24;97866.88;;;9.11;82.92
68859;BME280;55864;49.238;8.092;2023-04-01T06:47:10;97875.75;;;9.10;83.50
68859;BME280;55864;49.238;8.092;2023-04-01T06:49:46;97868.53;;;9.12;84.08
68859;BME280;55864;49.238;8.092;2023-04-01T06:52:18;97879.59;;;9.22;83.88
68859;BME280;55864;49.238;8.092;2023-04-01T06:54:45;97885.34;;;9.17;83.11
68859;BME280;55864;49.238;8.092;2023-04-01T06:57:21;97880.75;;;9.19;83.69
68859;BME280;55864;49.238;8.092;2023-04-01T06:59:25;97874.69;;;9.19;84.21
68859;BME280;55864;49.238;8.092;2023-04-01T07:01:34;97884.97;;;9.28;84.88
68859;BME280;55864;49.238;8.092;2023-04-01T07:03:41;97881.34;;;9.29;83.78
68859;BME280;55864;49.238;8.092;2023-04-01T07:05:43;97892.31;;;9.33;84.28
68859;BME280;55864;49.238;8.092;2023-04-01T07:07:46;97899.53;;;9.31;84.24
68859;BME280;55864;49.238;8.092;2023-04-01T07:09:51;97888.06;;;9.32;84.58
68859;BME280;55864;49.238;8.092;2023-04-01T07:12:02;97900.19;;;9.33;84.27
68859;BME280;55864;49.238;8.092;2023-04-01T07:14:30;97907.03;;;9.34;84.97
68859;BME280;55864;49.238;8.092;2023-04-01T07:16:34;97901.97;;;9.32;84.40
68859;BME280;55864;49.238;8.092;2023-04-01T07:18:42;97899.69;;;9.29;84.38
68859;BME280;55864;49.238;8.092;2023-04-01T07:20:46;97902.66;;;9.26;84.63
68859;BME280;55864;49.238;8.092;2023-04-01T07:22:49;97898.75;;;9.22;84.88
68859;BME280;55864;49.238;8.092;2023-04-01T07:24:57;97906.97;;;9.19;84.76
68859;BME280;55864;49.238;8.092;2023-04-01T07:27:02;97909.59;;;9.19;84.79
68859;BME280;55864;49.238;8.092;2023-04-01T07:29:09;97904.81;;;9.23;84.65
68859;BME280;55864;49.238;8.092;2023-04-01T07:31:20;97906.34;;;9.09;84.67
68859;BME280;55864;49.238;8.092;2023-04-01T07:33:25;97906.97;;;9.19;85.14
68859;BME280;55864;49.238;8.092;2023-04-01T07:35:35;97903.97;;;9.22;85.09
68859;BME280;55864;49.238;8.092;2023-04-01T07:37:45;97901.88;;;9.18;84.68
68859;BME280;55864;49.238;8.092;2023-04-01T07:39:53;97903.34;;;9.20;84.88
68859;BME280;55864;49.238;8.092;2023-04-01T07:42:08;97910.25;;;9.13;84.35
68859;BME280;55864;49.238;8.092;2023-04-01T07:44:20;97903.97;;;9.22;85.69
68859;BME280;55864;49.238;8.092;2023-04-01T07:46:45;97915.34;;;9.07;85.27
68859;BME280;55864;49.238;8.092;2023-04-01T07:48:53;97917.50;;;9.03;86.19
68859;BME280;55864;49.238;8.092;2023-04-01T07:51:01;97908.47;;;9.14;87.28
68859;BME280;55864;49.238;8.092;2023-04-01T07:53:08;97917.28;;;9.13;86.34
68859;BME280;55864;49.238;8.092;2023-04-01T07:55:15;97916.97;;;9.16;86.35
68859;BME280;55864;49.238;8.092;2023-04-01T07:57:21;97911.38;;;9.19;86.33
68859;BME280;55864;49.238;8.092;2023-04-01T07:59:32;97914.63;;;9.21;86.79
68859;BME280;55864;49.238;8.092;2023-04-01T08:02:05;97922.97;;;9.24;86.96
68859;BME280;55864;49.238;8.092;2023-04-01T08:06:44;97923.63;;;9.26;86.70
68859;BME280;55864;49.238;8.092;2023-04-01T08:08:58;97921.13;;;9.33;87.87
68859;BME280;55864;49.238;8.092;2023-04-01T08:11:28;97921.94;;;9.33;88.03
68859;BME280;55864;49.238;8.092;2023-04-01T08:14:08;97928.66;;;9.36;87.55
68859;BME280;55864;49.238;8.092;2023-04-01T08:16:35;97925.38;;;9.34;87.49
68859;BME280;55864;49.238;8.092;2023-04-01T08:18:47;97937.19;;;9.30;87.93
68859;BME280;55864;49.238;8.092;2023-04-01T08:20:55;97933.91;;;9.28;87.12
68859;BME280;55864;49.238;8.092;2023-04-01T08:23:03;97929.22;;;9.23;87.43
68859;BME280;55864;49.238;8.092;2023-04-01T08:25:16;97929.69;;;9.27;88.35
68859;BME280;55864;49.238;8.092;2023-04-01T08:27:23;97930.16;;;9.30;88.62
68859;BME280;55864;49.238;8.092;2023-04-01T08:29:32;97933.59;;;9.31;87.98
68859;BME280;55864;49.238;8.092;2023-04-01T08:31:37;97940.91;;;9.35;88.88
68859;BME280;55864;49.238;8.092;2023-04-01T08:33:41;97938.13;;;9.37;89.13
68859;BME280;55864;49.238;8.092;2023-04-01T08:35:50;97930.91;;;9.39;89.00
68859;BME280;55864;49.238;8.092;2023-04-01T08:37:53;97939.88;;;9.44;88.47
68859;BME280;55864;49.238;8.092;2023-04-01T08:40:11;97946.25;;;9.50;89.26
68859;BME280;55864;49.238;8.092;2023-04-01T08:42:35;97929.25;;;9.46;88.18
68859;BME280;55864;49.238;8.092;2023-04-01T08:45:09;97938.06;;;9.53;88.78
68859;BME280;55864;49.238;8.092;2023-04-01T08:47:23;97933.97;;;9.50;88.40
68859;BME280;55864;49.238;8.092;2023-04-01T08:49:46;97933.88;;;9.36;89.06
68859;BME280;55864;49.238;8.092;2023-04-01T08:52:22;97936.47;;;9.44;89.72
68859;BME280;55864;49.238;8.092;2023-04-01T08:54:42;97939.56;;;9.47;89.75
68859;BME280;55864;49.238;8.092;2023-04-01T08:56:55;97936.25;;;9.54;90.22
68859;BME280;55864;49.238;8.092;2023-04-01T08:59:14;97942.28;;;9.54;90.12
68859;BME280;55864;49.238;8.092;2023-04-01T09:01:25;97944.75;;;9.56;89.94
68859;BME280;55864;49.238;8.092;2023-04-01T09:03:37;97929.81;;;9.56;89.85
68859;BME280;55864;49.238;8.092;2023-04-01T09:05:54;97950.63;;;9.58;90.10
68859;BME280;55864;49.238;8.092;2023-04-01T09:08:07;97940.09;;;9.66;90.88
68859;BME280;55864;49.238;8.092;2023-04-01T09:10:35;97945.34;;;9.66;90.52
68859;BME280;55864;49.238;8.092;2023-04-01T09:13:23;97944.41;;;9.59;91.19
68859;BME280;55864;49.238;8.092;2023-04-01T09:16:01;97950.94;;;9.63;89.60
68859;BME280;55864;49.238;8.092;2023-04-01T09:18:49;97947.50;;;9.62;90.68
68859;BME280;55864;49.238;8.092;2023-04-01T09:21:08;97949.78;;;9.65;90.86
68859;BME280;55864;49.238;8.092;2023-04-01T09:23:32;97950.56;;;9.66;89.50
68859;BME280;55864;49.238;8.092;2023-04-01T09:25:46;97964.78;;;9.71;90.24
68859;BME280;55864;49.238;8.092;2023-04-01T09:27:56;97952.97;;;9.75;90.43
68859;BME280;55864;49.238;8.092;2023-04-01T09:30:33;97950.03;;;9.78;90.57
68859;BME280;55864;49.238;8.092;2023-04-01T09:35:20;97972.34;;;9.74;89.98
68859;BME280;55864;49.238;8.092;2023-04-01T09:37:30;97960.03;;;9.75;90.99
68859;BME280;55864;49.238;8.092;2023-04-01T09:39:42;97972.16;;;9.76;91.76
68859;BME280;55864;49.238;8.092;2023-04-01T09:41:57;97967.88;;;9.75;91.33
68859;BME280;55864;49.238;8.092;2023-04-01T09:44:18;97968.88;;;9.74;91.39
68859;BME280;55864;49.238;8.092;2023-04-01T09:46:56;97960.34;;;9.80;92.49
68859;BME280;55864;49.238;8.092;2023-04-01T09:49:28;97958.34;;;9.82;91.74
68859;BME280;55864;49.238;8.092;2023-04-01T09:51:37;97975.59;;;9.76;91.50
68859;BME280;55864;49.238;8.092;2023-04-01T09:53:53;97972.63;;;9.79;91.78
68859;BME280;55864;49.238;8.092;2023-04-01T10:08:18;97974.59;;;9.77;90.60
68859;BME280;55864;49.238;8.092;2023-04-01T10:13:41;97987.66;;;9.85;91.92
68859;BME280;55864;49.238;8.092;2023-04-01T10:16:13;97970.78;;;9.88;92.32
68859;BME280;55864;49.238;8.092;2023-04-01T10:18:51;97979.09;;;9.91;92.06
68859;BME280;55864;49.238;8.092;2023-04-01T10:21:22;97976.59;;;9.98;91.42
68859;BME280;55864;49.238;8.092;2023-04-01T10:23:44;97979.03;;;9.99;90.49
68859;BME280;55864;49.238;8.092;2023-04-01T10:26:19;97978.53;;;10.04;91.07
68859;BME280;55864;49.238;8.092;2023-04-01T10:28:59;97981.31;;;10.02;91.23
68859;BME280;55864;49.238;8.092;2023-04-01T10:32:07;97982.28;;;10.09;91.17
68859;BME280;55864;49.238;8.092;2023-04-01T10:36:53;97979.41;;;10.19;91.48
68859;BME280;55864;49.238;8.092;2023-04-01T10:39:37;97988.13;;;10.19;91.58
68859;BME280;55864;49.238;8.092;2023-04-01T10:48:22;97971.13;;;10.30;90.84
68859;BME280;55864;49.238;8.092;2023-04-01T10:50:35;97975.41;;;10.31;91.59
68859;BME280;55864;49.238;8.092;2023-04-01T11:01:59;97980.41;;;10.40;89.85
68859;BME280;55864;49.238;8.092;2023-04-01T11:07:32;97981.03;;;10.43;90.63
68859;BME280;55864;49.238;8.092;2023-04-01T11:12:42;97987.09;;;10.43;90.84
68859;BME280;55864;49.238;8.092;2023-04-01T11:20:20;97992.66;;;10.48;89.74
68859;BME280;55864;49.238;8.092;2023-04-01T11:22:45;97995.41;;;10.47;89.87
68859;BME280;55864;49.238;8.092;2023-04-01T11:28:11;97996.94;;;10.41;89.34
68859;BME280;55864;49.238;8.092;2023-04-01T11:30:28;97995.50;;;10.38;89.51
68859;BME280;55864;49.238;8.092;2023-04-01T11:32:46;98004.81;;;10.41;89.11
68859;BME280;55864;49.238;8.092;2023-04-01T11:34:57;98011.16;;;10.47;90.50
68859;BME280;55864;49.238;8.092;2023-04-01T11:37:08;98005.78;;;10.48;90.90
68859;BME280;55864;49.238;8.092;2023-04-01T11:39:24;98013.75;;;10.55;91.55
68859;BME280;55864;49.238;8.092;2023-04-01T11:41:40;98011.09;;;10.55;90.19
68859;BME280;55864;49.238;8.092;2023-04-01T11:44:14;98016.81;;;10.58;90.44
68859;BME280;55864;49.238;8.092;2023-04-01T11:46:36;98016.94;;;10.65;90.71
68859;BME280;55864;49.238;8.092;2023-04-01T11:48:54;98004.44;;;10.67;89.79
68859;BME280;55864;49.238;8.092;2023-04-01T11:51:08;98008.34;;;10.71;89.92
68859;BME280;55864;49.238;8.092;2023-04-01T11:53:22;98010.78;;;10.72;89.73
68859;BME280;55864;49.238;8.092;2023-04-01T11:55:37;98013.88;;;10.76;89.55
68859;BME280;55864;49.238;8.092;2023-04-01T11:58:21;98015.03;;;10.73;88.05
68859;BME280;55864;49.238;8.092;2023-04-01T12:00:47;98016.69;;;10.74;87.74
68859;BME280;55864;49.238;8.092;2023-04-01T12:03:06;98014.50;;;10.63;86.84
68859;BME280;55864;49.238;8.092;2023-04-01T12:05:36;98016.56;;;10.68;87.92
68859;BME280;55864;49.238;8.092;2023-04-01T12:10:18;98020.84;;;10.69;87.68
68859;BME280;55864;49.238;8.092;2023-04-01T12:12:25;98022.75;;;10.75;89.17
68859;BME280;55864;49.238;8.092;2023-04-01T12:14:35;98027.13;;;10.82;91.82
68859;BME280;55864;49.238;8.092;2023-04-01T12:16:56;98018.69;;;10.87;90.15
68859;BME280;55864;49.238;8.092;2023-04-01T12:19:04;98024.94;;;10.86;88.64
68859;BME280;55864;49.238;8.092;2023-04-01T12:21:21;98025.94;;;10.85;89.20
68859;BME280;55864;49.238;8.092;2023-04-01T12:23:46;98020.88;;;10.83;88.84
68859;BME280;55864;49.238;8.092;2023-04-01T12:26:10;98015.25;;;10.86;88.98
68859;BME280;55864;49.238;8.092;2023-04-01T12:28:21;98015.88;;;10.88;89.32
68859;BME280;55864;49.238;8.092;2023-04-01T12:30:46;98020.34;;;10.88;88.35
68859;BME280;55864;49.238;8.092;2023-04-01T12:32:56;98018.06;;;10.85;87.92
68859;BME280;55864;49.238;8.092;2023-04-01T12:35:13;98026.38;;;10.88;88.36
68859;BME280;55864;49.238;8.092;2023-04-01T12:37:20;98030.66;;;10.89;87.68
68859;BME280;55864;49.238;8.092;2023-04-01T12:42:04;98034.88;;;10.76;87.36